Santo Antonio dos Lopes, Brazil
Current Conditions -  °F | °C
As of 5:00 PM on Thursday 18 Dec 2014 (Local Time) from SBTE Reporting Station
Few Clouds Few Clouds  
Wind Chill: 93°   Ceiling: Unl
Heat Index: 96°   Visibility: 6mi
Dew Point: 66°   Wind: 5mph
Humidity: 41%   Direction: 300°WNW
Pressure: 29.71"   Gusts: NA
Location:  4.87°S, 44.37°W
Report Text: SBTE 182000Z 30004KT 9999 FEW040 34/19 Q1006
Loading
Personal Weather Stations






























Interactive Weather Map New forecast layout! Learn more

10-Day Weather Forecast

Advertisements
Track Severe Weather on mobile